Terminal Aerodrome Forecast
Issued by NWS

Home | Current Version | Previous Version | Text Only | Print | Product List | Glossary On
Versions: 1 2 3 4 5 6 7 8 9 10 11 12 13 14 15 16 17 18 19 20
000
FTUS44 KEPZ 190545
TAFTCS
TAF
KTCS 190545Z 1906/2006 22009KT P6SM FEW026 SCT060 OVC100
     FM190800 23013G23KT P6SM VCSH SCT060 SCT100 BKN250
     FM191400 25015G25KT P6SM VCSH FEW020 BKN040 BKN100
     FM191900 23028G38KT P6SM FEW025 BKN040 BKN090
     FM200300 21013G23KT P6SM FEW020 SCT040 BKN090=

USA.gov is the U.S. government's official web portal to all federal, state and local government web resources and services.